sensor_id;sensor_type;location;lat;lon;timestamp;temperature;humidity
18444;DHT22;9350;53.176;8.194;2024-01-15T00:00:57;2.40;99.90
18444;DHT22;9350;53.176;8.194;2024-01-15T00:03:24;2.40;99.90
18444;DHT22;9350;53.176;8.194;2024-01-15T00:05:51;2.40;99.90
18444;DHT22;9350;53.176;8.194;2024-01-15T00:08:17;2.40;99.90
18444;DHT22;9350;53.176;8.194;2024-01-15T00:10:44;2.40;99.90
18444;DHT22;9350;53.176;8.194;2024-01-15T00:13:11;2.40;99.90
18444;DHT22;9350;53.176;8.194;2024-01-15T00:15:38;2.40;99.90
18444;DHT22;9350;53.176;8.194;2024-01-15T00:18:06;2.50;99.90
18444;DHT22;9350;53.176;8.194;2024-01-15T00:20:33;2.50;99.90
18444;DHT22;9350;53.176;8.194;2024-01-15T00:23:00;2.50;99.90
18444;DHT22;9350;53.176;8.194;2024-01-15T00:25:26;2.40;99.90
18444;DHT22;9350;53.176;8.194;2024-01-15T00:27:53;2.30;99.90
18444;DHT22;9350;53.176;8.194;2024-01-15T00:30:20;2.30;99.90
18444;DHT22;9350;53.176;8.194;2024-01-15T00:32:47;2.30;99.90
18444;DHT22;9350;53.176;8.194;2024-01-15T00:35:15;2.30;99.90
18444;DHT22;9350;53.176;8.194;2024-01-15T00:37:42;2.30;99.90
18444;DHT22;9350;53.176;8.194;2024-01-15T00:40:09;2.20;99.90
18444;DHT22;9350;53.176;8.194;2024-01-15T00:42:36;2.30;99.90
18444;DHT22;9350;53.176;8.194;2024-01-15T00:45:03;2.30;99.90
18444;DHT22;9350;53.176;8.194;2024-01-15T00:47:30;2.20;99.90
18444;DHT22;9350;53.176;8.194;2024-01-15T00:49:57;2.30;99.90
18444;DHT22;9350;53.176;8.194;2024-01-15T00:52:25;2.30;99.90
18444;DHT22;9350;53.176;8.194;2024-01-15T00:54:52;2.30;99.90
18444;DHT22;9350;53.176;8.194;2024-01-15T00:57:19;2.30;99.90
18444;DHT22;9350;53.176;8.194;2024-01-15T00:59:46;2.30;99.90
18444;DHT22;9350;53.176;8.194;2024-01-15T01:02:12;2.20;99.90
18444;DHT22;9350;53.176;8.194;2024-01-15T01:04:40;2.30;99.90
18444;DHT22;9350;53.176;8.194;2024-01-15T01:07:07;2.30;99.90
18444;DHT22;9350;53.176;8.194;2024-01-15T01:09:35;2.30;99.90
18444;DHT22;9350;53.176;8.194;2024-01-15T01:12:02;2.30;99.90
18444;DHT22;9350;53.176;8.194;2024-01-15T01:14:28;2.30;99.90
18444;DHT22;9350;53.176;8.194;2024-01-15T01:16:55;2.20;99.90
18444;DHT22;9350;53.176;8.194;2024-01-15T01:19:22;2.30;99.90
18444;DHT22;9350;53.176;8.194;2024-01-15T01:21:50;2.20;99.90
18444;DHT22;9350;53.176;8.194;2024-01-15T01:24:17;2.30;99.90
18444;DHT22;9350;53.176;8.194;2024-01-15T01:26:46;2.30;99.90
18444;DHT22;9350;53.176;8.194;2024-01-15T01:29:13;2.20;99.90
18444;DHT22;9350;53.176;8.194;2024-01-15T01:31:43;2.30;99.90
18444;DHT22;9350;53.176;8.194;2024-01-15T01:34:09;2.30;99.90
18444;DHT22;9350;53.176;8.194;2024-01-15T01:36:36;2.30;99.90
18444;DHT22;9350;53.176;8.194;2024-01-15T01:39:03;2.30;99.90
18444;DHT22;9350;53.176;8.194;2024-01-15T01:41:30;2.30;99.90
18444;DHT22;9350;53.176;8.194;2024-01-15T01:43:59;2.30;99.90
18444;DHT22;9350;53.176;8.194;2024-01-15T01:46:27;2.30;99.90
18444;DHT22;9350;53.176;8.194;2024-01-15T01:48:55;2.30;99.90
18444;DHT22;9350;53.176;8.194;2024-01-15T01:51:23;2.30;99.90
18444;DHT22;9350;53.176;8.194;2024-01-15T01:53:51;2.30;99.90
18444;DHT22;9350;53.176;8.194;2024-01-15T01:56:18;2.30;99.90
18444;DHT22;9350;53.176;8.194;2024-01-15T01:58:45;2.30;99.90
18444;DHT22;9350;53.176;8.194;2024-01-15T02:01:15;2.40;99.90
18444;DHT22;9350;53.176;8.194;2024-01-15T02:03:43;2.40;99.90
18444;DHT22;9350;53.176;8.194;2024-01-15T02:06:10;2.40;99.90
18444;DHT22;9350;53.176;8.194;2024-01-15T02:08:36;2.40;99.90
18444;DHT22;9350;53.176;8.194;2024-01-15T02:11:04;2.30;99.90
18444;DHT22;9350;53.176;8.194;2024-01-15T02:13:31;2.30;99.90
18444;DHT22;9350;53.176;8.194;2024-01-15T02:15:57;2.30;99.90
18444;DHT22;9350;53.176;8.194;2024-01-15T02:18:25;2.40;99.90
18444;DHT22;9350;53.176;8.194;2024-01-15T02:20:52;2.30;99.90
18444;DHT22;9350;53.176;8.194;2024-01-15T02:23:20;2.30;99.90
18444;DHT22;9350;53.176;8.194;2024-01-15T02:25:47;2.30;99.90
18444;DHT22;9350;53.176;8.194;2024-01-15T02:28:16;2.30;99.90
18444;DHT22;9350;53.176;8.194;2024-01-15T02:30:44;2.30;99.90
18444;DHT22;9350;53.176;8.194;2024-01-15T02:33:11;2.30;99.90
18444;DHT22;9350;53.176;8.194;2024-01-15T02:35:38;2.30;99.90
18444;DHT22;9350;53.176;8.194;2024-01-15T02:38:05;2.30;99.90
18444;DHT22;9350;53.176;8.194;2024-01-15T02:40:34;2.30;99.90
18444;DHT22;9350;53.176;8.194;2024-01-15T02:43:02;2.40;99.90
18444;DHT22;9350;53.176;8.194;2024-01-15T02:45:29;2.40;99.90
18444;DHT22;9350;53.176;8.194;2024-01-15T02:47:55;2.40;99.90
18444;DHT22;9350;53.176;8.194;2024-01-15T02:50:22;2.30;99.90
18444;DHT22;9350;53.176;8.194;2024-01-15T02:52:49;2.30;99.90
18444;DHT22;9350;53.176;8.194;2024-01-15T02:55:16;2.40;99.90
18444;DHT22;9350;53.176;8.194;2024-01-15T02:57:44;2.30;99.90
18444;DHT22;9350;53.176;8.194;2024-01-15T03:00:11;2.30;99.90
18444;DHT22;9350;53.176;8.194;2024-01-15T03:02:39;2.40;99.90
18444;DHT22;9350;53.176;8.194;2024-01-15T03:05:06;2.30;99.90
18444;DHT22;9350;53.176;8.194;2024-01-15T03:07:33;2.40;99.90
18444;DHT22;9350;53.176;8.194;2024-01-15T03:10:00;2.40;99.90
18444;DHT22;9350;53.176;8.194;2024-01-15T03:12:27;2.40;99.90
18444;DHT22;9350;53.176;8.194;2024-01-15T03:14:55;2.40;99.90
18444;DHT22;9350;53.176;8.194;2024-01-15T03:17:22;2.40;99.90
18444;DHT22;9350;53.176;8.194;2024-01-15T03:19:49;2.40;99.90
18444;DHT22;9350;53.176;8.194;2024-01-15T03:22:16;2.50;99.90
18444;DHT22;9350;53.176;8.194;2024-01-15T03:24:43;2.40;99.90
18444;DHT22;9350;53.176;8.194;2024-01-15T03:27:10;2.40;99.90
18444;DHT22;9350;53.176;8.194;2024-01-15T03:29:37;2.30;99.90
18444;DHT22;9350;53.176;8.194;2024-01-15T03:32:05;2.40;99.90
18444;DHT22;9350;53.176;8.194;2024-01-15T03:34:32;2.40;99.90
18444;DHT22;9350;53.176;8.194;2024-01-15T03:36:59;2.40;99.90
18444;DHT22;9350;53.176;8.194;2024-01-15T03:39:25;2.40;99.90
18444;DHT22;9350;53.176;8.194;2024-01-15T03:41:52;2.40;99.90
18444;DHT22;9350;53.176;8.194;2024-01-15T03:44:19;2.40;99.90
18444;DHT22;9350;53.176;8.194;2024-01-15T03:46:46;2.40;99.90
18444;DHT22;9350;53.176;8.194;2024-01-15T03:49:14;2.40;99.90
18444;DHT22;9350;53.176;8.194;2024-01-15T03:51:41;2.40;99.90
18444;DHT22;9350;53.176;8.194;2024-01-15T03:54:07;2.40;99.90
18444;DHT22;9350;53.176;8.194;2024-01-15T03:56:34;2.40;99.90
18444;DHT22;9350;53.176;8.194;2024-01-15T03:59:01;2.40;99.90
18444;DHT22;9350;53.176;8.194;2024-01-15T04:01:28;2.40;99.90
18444;DHT22;9350;53.176;8.194;2024-01-15T04:03:55;2.40;99.90
18444;DHT22;9350;53.176;8.194;2024-01-15T04:06:23;2.40;99.90
18444;DHT22;9350;53.176;8.194;2024-01-15T04:08:50;2.50;99.90
18444;DHT22;9350;53.176;8.194;2024-01-15T04:11:17;2.50;99.90
18444;DHT22;9350;53.176;8.194;2024-01-15T04:13:44;2.40;99.90
18444;DHT22;9350;53.176;8.194;2024-01-15T04:16:10;2.50;99.90
18444;DHT22;9350;53.176;8.194;2024-01-15T04:18:37;2.50;99.90
18444;DHT22;9350;53.176;8.194;2024-01-15T04:21:04;2.50;99.90
18444;DHT22;9350;53.176;8.194;2024-01-15T04:23:33;2.50;99.90
18444;DHT22;9350;53.176;8.194;2024-01-15T04:26:00;2.50;99.90
18444;DHT22;9350;53.176;8.194;2024-01-15T04:28:27;2.50;99.90
18444;DHT22;9350;53.176;8.194;2024-01-15T04:30:54;2.50;99.90
18444;DHT22;9350;53.176;8.194;2024-01-15T04:33:20;2.50;99.90
18444;DHT22;9350;53.176;8.194;2024-01-15T04:35:47;2.40;99.90
18444;DHT22;9350;53.176;8.194;2024-01-15T04:38:14;2.40;99.90
18444;DHT22;9350;53.176;8.194;2024-01-15T04:40:42;2.40;99.90
18444;DHT22;9350;53.176;8.194;2024-01-15T04:43:09;2.40;99.90
18444;DHT22;9350;53.176;8.194;2024-01-15T04:45:36;2.40;99.90
18444;DHT22;9350;53.176;8.194;2024-01-15T04:48:03;2.40;99.90
18444;DHT22;9350;53.176;8.194;2024-01-15T04:50:30;2.40;99.90
18444;DHT22;9350;53.176;8.194;2024-01-15T04:52:57;2.50;99.90
18444;DHT22;9350;53.176;8.194;2024-01-15T04:55:23;2.50;99.90
18444;DHT22;9350;53.176;8.194;2024-01-15T04:57:51;2.40;99.90
18444;DHT22;9350;53.176;8.194;2024-01-15T05:00:18;2.50;99.90
18444;DHT22;9350;53.176;8.194;2024-01-15T05:02:45;2.50;99.90
18444;DHT22;9350;53.176;8.194;2024-01-15T05:05:12;2.50;99.90
18444;DHT22;9350;53.176;8.194;2024-01-15T05:07:39;2.40;99.90
18444;DHT22;9350;53.176;8.194;2024-01-15T05:10:06;2.40;99.90
18444;DHT22;9350;53.176;8.194;2024-01-15T05:12:34;2.40;99.90
18444;DHT22;9350;53.176;8.194;2024-01-15T05:15:02;2.40;99.90
18444;DHT22;9350;53.176;8.194;2024-01-15T05:17:29;2.40;99.90
18444;DHT22;9350;53.176;8.194;2024-01-15T05:19:56;2.40;99.90
18444;DHT22;9350;53.176;8.194;2024-01-15T05:22:23;2.50;99.90
18444;DHT22;9350;53.176;8.194;2024-01-15T05:24:50;2.40;99.90
18444;DHT22;9350;53.176;8.194;2024-01-15T05:27:17;2.40;99.90
18444;DHT22;9350;53.176;8.194;2024-01-15T05:29:43;2.40;99.90
18444;DHT22;9350;53.176;8.194;2024-01-15T05:32:12;2.40;99.90
18444;DHT22;9350;53.176;8.194;2024-01-15T05:34:38;2.40;99.90
18444;DHT22;9350;53.176;8.194;2024-01-15T05:37:05;2.30;99.90
18444;DHT22;9350;53.176;8.194;2024-01-15T05:42:01;2.40;99.90
18444;DHT22;9350;53.176;8.194;2024-01-15T05:44:28;2.40;99.90
18444;DHT22;9350;53.176;8.194;2024-01-15T05:46:55;2.40;99.90
18444;DHT22;9350;53.176;8.194;2024-01-15T05:49:23;2.40;99.90
18444;DHT22;9350;53.176;8.194;2024-01-15T05:51:50;2.40;99.90
18444;DHT22;9350;53.176;8.194;2024-01-15T05:54:18;2.40;99.90
18444;DHT22;9350;53.176;8.194;2024-01-15T05:56:45;2.40;99.90
18444;DHT22;9350;53.176;8.194;2024-01-15T05:59:11;2.50;99.90
18444;DHT22;9350;53.176;8.194;2024-01-15T06:01:38;2.30;99.90
18444;DHT22;9350;53.176;8.194;2024-01-15T06:04:05;2.40;99.90
18444;DHT22;9350;53.176;8.194;2024-01-15T06:06:34;2.50;99.90
18444;DHT22;9350;53.176;8.194;2024-01-15T06:09:01;2.40;99.90
18444;DHT22;9350;53.176;8.194;2024-01-15T06:11:31;2.30;99.90
18444;DHT22;9350;53.176;8.194;2024-01-15T06:13:58;2.30;99.90
18444;DHT22;9350;53.176;8.194;2024-01-15T06:16:26;2.40;99.90
18444;DHT22;9350;53.176;8.194;2024-01-15T06:18:53;2.30;99.90
18444;DHT22;9350;53.176;8.194;2024-01-15T06:21:20;2.40;99.90
18444;DHT22;9350;53.176;8.194;2024-01-15T06:23:48;2.40;99.90
18444;DHT22;9350;53.176;8.194;2024-01-15T06:26:15;2.40;99.90
18444;DHT22;9350;53.176;8.194;2024-01-15T06:28:42;2.30;99.90
18444;DHT22;9350;53.176;8.194;2024-01-15T06:31:09;2.30;99.90
18444;DHT22;9350;53.176;8.194;2024-01-15T06:33:36;2.30;99.90
18444;DHT22;9350;53.176;8.194;2024-01-15T06:36:04;2.30;99.90
18444;DHT22;9350;53.176;8.194;2024-01-15T06:38:31;2.30;99.90
18444;DHT22;9350;53.176;8.194;2024-01-15T06:40:59;2.30;99.90
18444;DHT22;9350;53.176;8.194;2024-01-15T06:43:25;2.30;99.90
18444;DHT22;9350;53.176;8.194;2024-01-15T06:45:52;2.30;99.90
18444;DHT22;9350;53.176;8.194;2024-01-15T06:48:19;2.40;99.90
18444;DHT22;9350;53.176;8.194;2024-01-15T06:50:46;2.30;99.90
18444;DHT22;9350;53.176;8.194;2024-01-15T06:53:13;2.30;99.90
18444;DHT22;9350;53.176;8.194;2024-01-15T06:55:40;2.30;99.90
18444;DHT22;9350;53.176;8.194;2024-01-15T06:58:08;2.20;99.90
18444;DHT22;9350;53.176;8.194;2024-01-15T07:00:35;2.30;99.90
18444;DHT22;9350;53.176;8.194;2024-01-15T07:03:03;2.40;99.90
18444;DHT22;9350;53.176;8.194;2024-01-15T07:05:30;2.40;99.90
18444;DHT22;9350;53.176;8.194;2024-01-15T07:07:57;2.40;99.90
18444;DHT22;9350;53.176;8.194;2024-01-15T07:10:24;2.30;99.90
18444;DHT22;9350;53.176;8.194;2024-01-15T07:12:51;2.40;99.90
18444;DHT22;9350;53.176;8.194;2024-01-15T07:15:20;2.30;99.90
18444;DHT22;9350;53.176;8.194;2024-01-15T07:17:47;2.30;99.90
18444;DHT22;9350;53.176;8.194;2024-01-15T07:20:14;2.30;99.90
18444;DHT22;9350;53.176;8.194;2024-01-15T07:22:41;2.30;99.90
18444;DHT22;9350;53.176;8.194;2024-01-15T07:25:08;2.30;99.90
18444;DHT22;9350;53.176;8.194;2024-01-15T07:27:34;2.30;99.90
18444;DHT22;9350;53.176;8.194;2024-01-15T07:30:01;2.20;99.90
18444;DHT22;9350;53.176;8.194;2024-01-15T07:32:32;2.30;99.90
18444;DHT22;9350;53.176;8.194;2024-01-15T07:34:58;2.30;99.90
18444;DHT22;9350;53.176;8.194;2024-01-15T07:37:26;2.30;99.90
18444;DHT22;9350;53.176;8.194;2024-01-15T07:39:52;2.30;99.90
18444;DHT22;9350;53.176;8.194;2024-01-15T07:42:19;2.30;99.90
18444;DHT22;9350;53.176;8.194;2024-01-15T07:44:46;2.30;99.90
18444;DHT22;9350;53.176;8.194;2024-01-15T07:47:13;2.30;99.90
18444;DHT22;9350;53.176;8.194;2024-01-15T07:49:41;2.30;99.90
18444;DHT22;9350;53.176;8.194;2024-01-15T07:52:08;2.20;99.90
18444;DHT22;9350;53.176;8.194;2024-01-15T07:54:35;2.30;99.90
18444;DHT22;9350;53.176;8.194;2024-01-15T07:57:03;2.30;99.90
18444;DHT22;9350;53.176;8.194;2024-01-15T07:59:29;2.20;99.90
18444;DHT22;9350;53.176;8.194;2024-01-15T08:01:59;2.30;99.90
18444;DHT22;9350;53.176;8.194;2024-01-15T08:04:26;2.30;99.90
18444;DHT22;9350;53.176;8.194;2024-01-15T08:06:54;2.20;99.90
18444;DHT22;9350;53.176;8.194;2024-01-15T08:09:22;2.30;99.90
18444;DHT22;9350;53.176;8.194;2024-01-15T08:11:49;2.20;99.90
18444;DHT22;9350;53.176;8.194;2024-01-15T08:14:16;2.20;99.90
18444;DHT22;9350;53.176;8.194;2024-01-15T08:16:42;2.30;99.90
18444;DHT22;9350;53.176;8.194;2024-01-15T08:19:10;2.20;99.90
18444;DHT22;9350;53.176;8.194;2024-01-15T08:21:36;2.30;99.90
18444;DHT22;9350;53.176;8.194;2024-01-15T08:24:05;2.30;99.90
18444;DHT22;9350;53.176;8.194;2024-01-15T08:26:32;2.30;99.90
18444;DHT22;9350;53.176;8.194;2024-01-15T08:28:59;2.30;99.90
18444;DHT22;9350;53.176;8.194;2024-01-15T08:31:26;2.30;99.90
18444;DHT22;9350;53.176;8.194;2024-01-15T08:33:53;2.30;99.90
18444;DHT22;9350;53.176;8.194;2024-01-15T08:36:21;2.30;99.90
18444;DHT22;9350;53.176;8.194;2024-01-15T08:38:48;2.30;99.90
18444;DHT22;9350;53.176;8.194;2024-01-15T08:41:16;2.20;99.90
18444;DHT22;9350;53.176;8.194;2024-01-15T08:43:43;2.30;99.90
18444;DHT22;9350;53.176;8.194;2024-01-15T08:46:09;2.30;99.90
18444;DHT22;9350;53.176;8.194;2024-01-15T08:48:36;2.30;99.90
18444;DHT22;9350;53.176;8.194;2024-01-15T08:51:03;2.30;99.90
18444;DHT22;9350;53.176;8.194;2024-01-15T08:53:30;2.30;99.90
18444;DHT22;9350;53.176;8.194;2024-01-15T08:55:58;2.30;99.90
18444;DHT22;9350;53.176;8.194;2024-01-15T08:58:26;2.40;99.90
18444;DHT22;9350;53.176;8.194;2024-01-15T09:00:54;2.40;99.90
18444;DHT22;9350;53.176;8.194;2024-01-15T09:03:20;2.30;99.90
18444;DHT22;9350;53.176;8.194;2024-01-15T09:05:47;2.30;99.90
18444;DHT22;9350;53.176;8.194;2024-01-15T09:08:15;2.30;99.90
18444;DHT22;9350;53.176;8.194;2024-01-15T09:10:42;2.30;99.90
18444;DHT22;9350;53.176;8.194;2024-01-15T09:13:09;2.30;99.90
18444;DHT22;9350;53.176;8.194;2024-01-15T09:15:37;2.40;99.90
18444;DHT22;9350;53.176;8.194;2024-01-15T09:18:04;2.30;99.90
18444;DHT22;9350;53.176;8.194;2024-01-15T09:20:31;2.30;99.90
18444;DHT22;9350;53.176;8.194;2024-01-15T09:22:58;2.30;99.90
18444;DHT22;9350;53.176;8.194;2024-01-15T09:25:25;2.30;99.90
18444;DHT22;9350;53.176;8.194;2024-01-15T09:27:52;2.20;99.90
18444;DHT22;9350;53.176;8.194;2024-01-15T09:30:18;2.20;99.90
18444;DHT22;9350;53.176;8.194;2024-01-15T09:32:47;2.20;99.90
18444;DHT22;9350;53.176;8.194;2024-01-15T09:35:14;2.20;99.90
18444;DHT22;9350;53.176;8.194;2024-01-15T09:37:41;2.20;99.90
18444;DHT22;9350;53.176;8.194;2024-01-15T09:40:08;2.20;99.90
18444;DHT22;9350;53.176;8.194;2024-01-15T09:42:38;2.30;99.90
18444;DHT22;9350;53.176;8.194;2024-01-15T09:45:06;2.30;99.90
18444;DHT22;9350;53.176;8.194;2024-01-15T09:47:34;2.30;99.90
18444;DHT22;9350;53.176;8.194;2024-01-15T09:50:03;2.20;99.90
18444;DHT22;9350;53.176;8.194;2024-01-15T09:52:30;2.20;99.90
18444;DHT22;9350;53.176;8.194;2024-01-15T09:54:58;2.30;99.90
18444;DHT22;9350;53.176;8.194;2024-01-15T09:57:27;2.30;99.90
18444;DHT22;9350;53.176;8.194;2024-01-15T09:59:55;2.20;99.90
18444;DHT22;9350;53.176;8.194;2024-01-15T10:02:24;2.30;99.90
18444;DHT22;9350;53.176;8.194;2024-01-15T10:04:50;2.20;99.90
18444;DHT22;9350;53.176;8.194;2024-01-15T10:07:19;2.20;99.90
18444;DHT22;9350;53.176;8.194;2024-01-15T10:09:47;2.20;99.90
18444;DHT22;9350;53.176;8.194;2024-01-15T10:12:14;2.20;99.90
18444;DHT22;9350;53.176;8.194;2024-01-15T10:14:42;2.10;99.90
18444;DHT22;9350;53.176;8.194;2024-01-15T10:17:12;2.20;99.90
18444;DHT22;9350;53.176;8.194;2024-01-15T10:19:40;2.00;99.90
18444;DHT22;9350;53.176;8.194;2024-01-15T10:22:08;2.00;99.90
18444;DHT22;9350;53.176;8.194;2024-01-15T10:24:36;2.10;99.90
18444;DHT22;9350;53.176;8.194;2024-01-15T10:27:07;2.10;99.90
18444;DHT22;9350;53.176;8.194;2024-01-15T10:29:34;2.20;99.90
18444;DHT22;9350;53.176;8.194;2024-01-15T10:32:01;2.10;99.90
18444;DHT22;9350;53.176;8.194;2024-01-15T10:34:30;2.10;99.90
18444;DHT22;9350;53.176;8.194;2024-01-15T10:36:57;2.10;99.90
18444;DHT22;9350;53.176;8.194;2024-01-15T10:39:24;2.10;99.90
18444;DHT22;9350;53.176;8.194;2024-01-15T10:41:52;2.20;99.90
18444;DHT22;9350;53.176;8.194;2024-01-15T10:44:19;2.20;99.90
18444;DHT22;9350;53.176;8.194;2024-01-15T10:46:46;2.20;99.90
18444;DHT22;9350;53.176;8.194;2024-01-15T10:49:13;2.30;99.90
18444;DHT22;9350;53.176;8.194;2024-01-15T10:51:41;2.20;99.90
18444;DHT22;9350;53.176;8.194;2024-01-15T10:54:09;2.20;99.90
18444;DHT22;9350;53.176;8.194;2024-01-15T10:56:37;2.20;99.90
18444;DHT22;9350;53.176;8.194;2024-01-15T10:59:07;2.20;99.90
18444;DHT22;9350;53.176;8.194;2024-01-15T11:01:36;2.20;99.90
18444;DHT22;9350;53.176;8.194;2024-01-15T11:04:04;2.30;99.90
18444;DHT22;9350;53.176;8.194;2024-01-15T11:06:41;2.20;99.90
18444;DHT22;9350;53.176;8.194;2024-01-15T11:09:09;2.20;99.90
18444;DHT22;9350;53.176;8.194;2024-01-15T11:11:35;2.30;99.90
18444;DHT22;9350;53.176;8.194;2024-01-15T11:14:02;2.30;99.90
18444;DHT22;9350;53.176;8.194;2024-01-15T11:16:53;2.30;99.90
18444;DHT22;9350;53.176;8.194;2024-01-15T11:19:20;2.30;99.90
18444;DHT22;9350;53.176;8.194;2024-01-15T11:21:47;2.30;99.90
18444;DHT22;9350;53.176;8.194;2024-01-15T11:24:34;2.40;99.90
18444;DHT22;9350;53.176;8.194;2024-01-15T11:27:02;2.40;99.90
18444;DHT22;9350;53.176;8.194;2024-01-15T11:29:30;2.40;99.90
18444;DHT22;9350;53.176;8.194;2024-01-15T11:32:00;2.30;99.90
18444;DHT22;9350;53.176;8.194;2024-01-15T11:34:53;2.30;99.90
18444;DHT22;9350;53.176;8.194;2024-01-15T11:37:23;2.40;99.90
18444;DHT22;9350;53.176;8.194;2024-01-15T11:39:51;2.30;99.90
18444;DHT22;9350;53.176;8.194;2024-01-15T11:42:19;2.30;99.90
18444;DHT22;9350;53.176;8.194;2024-01-15T11:44:47;2.30;99.90
18444;DHT22;9350;53.176;8.194;2024-01-15T11:47:15;2.30;99.90
18444;DHT22;9350;53.176;8.194;2024-01-15T11:50:00;2.40;99.90
18444;DHT22;9350;53.176;8.194;2024-01-15T11:52:32;2.40;99.90
18444;DHT22;9350;53.176;8.194;2024-01-15T11:55:06;2.40;99.90
18444;DHT22;9350;53.176;8.194;2024-01-15T11:57:40;2.40;99.90
18444;DHT22;9350;53.176;8.194;2024-01-15T12:00:09;2.40;99.90
18444;DHT22;9350;53.176;8.194;2024-01-15T12:02:38;2.40;99.90
18444;DHT22;9350;53.176;8.194;2024-01-15T12:05:06;2.40;99.90
18444;DHT22;9350;53.176;8.194;2024-01-15T12:07:33;2.50;99.90
18444;DHT22;9350;53.176;8.194;2024-01-15T12:10:00;2.40;99.90
18444;DHT22;9350;53.176;8.194;2024-01-15T12:12:34;2.40;99.90
18444;DHT22;9350;53.176;8.194;2024-01-15T12:15:04;2.40;99.90
18444;DHT22;9350;53.176;8.194;2024-01-15T12:17:31;2.50;99.90
18444;DHT22;9350;53.176;8.194;2024-01-15T12:19:59;2.50;99.90
18444;DHT22;9350;53.176;8.194;2024-01-15T12:22:26;2.50;99.90
18444;DHT22;9350;53.176;8.194;2024-01-15T12:24:54;2.50;99.90
18444;DHT22;9350;53.176;8.194;2024-01-15T12:27:21;2.50;99.90
18444;DHT22;9350;53.176;8.194;2024-01-15T12:29:48;2.60;99.90
18444;DHT22;9350;53.176;8.194;2024-01-15T12:32:15;2.50;99.90
18444;DHT22;9350;53.176;8.194;2024-01-15T12:34:43;2.60;99.90
18444;DHT22;9350;53.176;8.194;2024-01-15T12:37:11;2.60;99.90
18444;DHT22;9350;53.176;8.194;2024-01-15T12:39:38;2.60;99.90
18444;DHT22;9350;53.176;8.194;2024-01-15T12:42:05;2.60;99.90
18444;DHT22;9350;53.176;8.194;2024-01-15T12:44:32;2.60;99.90
18444;DHT22;9350;53.176;8.194;2024-01-15T12:46:59;2.60;99.90
18444;DHT22;9350;53.176;8.194;2024-01-15T12:49:26;2.60;99.90
18444;DHT22;9350;53.176;8.194;2024-01-15T12:51:53;2.60;99.90
18444;DHT22;9350;53.176;8.194;2024-01-15T12:54:22;2.70;99.90
18444;DHT22;9350;53.176;8.194;2024-01-15T12:56:49;2.60;99.90
18444;DHT22;9350;53.176;8.194;2024-01-15T12:59:16;2.60;99.90
18444;DHT22;9350;53.176;8.194;2024-01-15T13:01:43;2.60;99.90
18444;DHT22;9350;53.176;8.194;2024-01-15T13:04:10;2.60;99.90
18444;DHT22;9350;53.176;8.194;2024-01-15T13:06:37;2.50;99.90
18444;DHT22;9350;53.176;8.194;2024-01-15T13:09:04;2.50;99.90
18444;DHT22;9350;53.176;8.194;2024-01-15T13:11:33;2.50;99.90
18444;DHT22;9350;53.176;8.194;2024-01-15T13:14:00;2.50;99.90
18444;DHT22;9350;53.176;8.194;2024-01-15T13:16:26;2.50;99.90
18444;DHT22;9350;53.176;8.194;2024-01-15T13:18:54;2.60;99.90
18444;DHT22;9350;53.176;8.194;2024-01-15T13:21:21;2.60;99.90
18444;DHT22;9350;53.176;8.194;2024-01-15T13:23:48;2.60;99.90
18444;DHT22;9350;53.176;8.194;2024-01-15T13:26:15;2.50;99.90
18444;DHT22;9350;53.176;8.194;2024-01-15T13:28:45;2.40;99.90
18444;DHT22;9350;53.176;8.194;2024-01-15T13:31:12;2.40;99.90
18444;DHT22;9350;53.176;8.194;2024-01-15T13:33:39;2.50;99.90
18444;DHT22;9350;53.176;8.194;2024-01-15T13:36:06;2.50;99.90
18444;DHT22;9350;53.176;8.194;2024-01-15T13:38:36;2.50;99.90
18444;DHT22;9350;53.176;8.194;2024-01-15T13:41:04;2.50;99.90
18444;DHT22;9350;53.176;8.194;2024-01-15T13:43:31;2.50;99.90
18444;DHT22;9350;53.176;8.194;2024-01-15T13:46:00;2.40;99.90
18444;DHT22;9350;53.176;8.194;2024-01-15T13:48:30;2.40;99.90
18444;DHT22;9350;53.176;8.194;2024-01-15T13:50:57;2.40;99.90
18444;DHT22;9350;53.176;8.194;2024-01-15T13:53:24;2.50;99.90
18444;DHT22;9350;53.176;8.194;2024-01-15T13:55:51;2.40;99.90
18444;DHT22;9350;53.176;8.194;2024-01-15T13:58:18;2.40;99.90
18444;DHT22;9350;53.176;8.194;2024-01-15T14:00:47;2.50;99.90
18444;DHT22;9350;53.176;8.194;2024-01-15T14:03:15;2.40;99.90
18444;DHT22;9350;53.176;8.194;2024-01-15T14:05:41;2.30;99.90
18444;DHT22;9350;53.176;8.194;2024-01-15T14:08:08;2.30;99.90
18444;DHT22;9350;53.176;8.194;2024-01-15T14:10:35;2.40;99.90
18444;DHT22;9350;53.176;8.194;2024-01-15T14:13:03;2.40;99.90
18444;DHT22;9350;53.176;8.194;2024-01-15T14:15:30;2.40;99.90
18444;DHT22;9350;53.176;8.194;2024-01-15T14:17:56;2.50;99.90
18444;DHT22;9350;53.176;8.194;2024-01-15T14:20:25;2.40;99.90
18444;DHT22;9350;53.176;8.194;2024-01-15T14:22:52;2.40;99.90
18444;DHT22;9350;53.176;8.194;2024-01-15T14:25:19;2.50;99.90
18444;DHT22;9350;53.176;8.194;2024-01-15T14:27:46;2.40;99.90
18444;DHT22;9350;53.176;8.194;2024-01-15T14:30:13;2.50;99.90
18444;DHT22;9350;53.176;8.194;2024-01-15T14:32:41;2.40;99.90
18444;DHT22;9350;53.176;8.194;2024-01-15T14:35:08;2.50;99.90
18444;DHT22;9350;53.176;8.194;2024-01-15T14:37:37;2.60;99.90
18444;DHT22;9350;53.176;8.194;2024-01-15T14:40:05;2.50;99.90
18444;DHT22;9350;53.176;8.194;2024-01-15T14:42:33;2.60;99.90
18444;DHT22;9350;53.176;8.194;2024-01-15T14:45:00;2.60;99.90
18444;DHT22;9350;53.176;8.194;2024-01-15T14:47:28;2.60;99.90
18444;DHT22;9350;53.176;8.194;2024-01-15T14:49:55;2.60;99.90
18444;DHT22;9350;53.176;8.194;2024-01-15T14:52:23;2.50;99.90
18444;DHT22;9350;53.176;8.194;2024-01-15T14:54:51;2.50;99.90
18444;DHT22;9350;53.176;8.194;2024-01-15T14:57:18;2.60;99.90
18444;DHT22;9350;53.176;8.194;2024-01-15T14:59:45;2.50;99.90
18444;DHT22;9350;53.176;8.194;2024-01-15T15:02:11;2.50;99.90
18444;DHT22;9350;53.176;8.194;2024-01-15T15:04:39;2.60;99.90
18444;DHT22;9350;53.176;8.194;2024-01-15T15:07:07;2.50;99.90
18444;DHT22;9350;53.176;8.194;2024-01-15T15:09:33;2.50;99.90
18444;DHT22;9350;53.176;8.194;2024-01-15T15:12:04;2.50;99.90
18444;DHT22;9350;53.176;8.194;2024-01-15T15:14:32;2.50;99.90
18444;DHT22;9350;53.176;8.194;2024-01-15T15:17:03;2.40;99.90
18444;DHT22;9350;53.176;8.194;2024-01-15T15:19:30;2.50;99.90
18444;DHT22;9350;53.176;8.194;2024-01-15T15:21:57;2.40;99.90
18444;DHT22;9350;53.176;8.194;2024-01-15T15:24:24;2.40;99.90
18444;DHT22;9350;53.176;8.194;2024-01-15T15:26:51;2.40;99.90
18444;DHT22;9350;53.176;8.194;2024-01-15T15:29:19;2.40;99.90
18444;DHT22;9350;53.176;8.194;2024-01-15T15:31:46;2.40;99.90
18444;DHT22;9350;53.176;8.194;2024-01-15T15:34:14;2.30;99.90
18444;DHT22;9350;53.176;8.194;2024-01-15T15:36:41;2.40;99.90
18444;DHT22;9350;53.176;8.194;2024-01-15T15:39:08;2.30;99.90
18444;DHT22;9350;53.176;8.194;2024-01-15T15:41:35;2.30;99.90
18444;DHT22;9350;53.176;8.194;2024-01-15T15:44:02;2.30;99.90
18444;DHT22;9350;53.176;8.194;2024-01-15T15:46:30;2.30;99.90
18444;DHT22;9350;53.176;8.194;2024-01-15T15:48:57;2.30;99.90
18444;DHT22;9350;53.176;8.194;2024-01-15T15:51:24;2.30;99.90
18444;DHT22;9350;53.176;8.194;2024-01-15T15:53:50;2.40;99.90
18444;DHT22;9350;53.176;8.194;2024-01-15T15:56:18;2.40;99.90
18444;DHT22;9350;53.176;8.194;2024-01-15T15:58:45;2.30;99.90
18444;DHT22;9350;53.176;8.194;2024-01-15T16:01:12;2.40;99.90
18444;DHT22;9350;53.176;8.194;2024-01-15T16:03:40;2.40;99.90
18444;DHT22;9350;53.176;8.194;2024-01-15T16:06:07;2.40;99.90